createdAt,value
2019-04-03T00:02:17.112Z,99746.55
2019-04-03T00:04:46.036Z,99746.20
2019-04-03T00:07:14.920Z,99748.71
2019-04-03T00:09:43.827Z,99748.02
2019-04-03T00:12:12.822Z,99745.95
2019-04-03T00:14:43.143Z,99753.11
2019-04-03T00:17:10.654Z,99753.81
2019-04-03T00:19:39.487Z,99756.22
2019-04-03T00:22:08.433Z,99758.92
2019-04-03T00:24:37.352Z,99772.38
2019-04-03T00:27:06.269Z,99761.88
2019-04-03T00:29:35.235Z,99761.92
2019-04-03T00:32:04.147Z,99758.05
2019-04-03T00:34:33.140Z,99758.73
2019-04-03T00:37:01.971Z,99765.48
2019-04-03T00:39:30.914Z,99744.90
2019-04-03T00:41:59.971Z,99761.42
2019-04-03T00:44:28.854Z,99759.52
2019-04-03T00:46:57.764Z,99756.45
2019-04-03T00:49:26.666Z,99750.77
2019-04-03T00:51:57.134Z,99751.38
2019-04-03T00:54:26.053Z,99752.39
2019-04-03T00:56:54.696Z,99752.13
2019-04-03T00:59:22.322Z,99755.31
2019-04-03T01:01:51.261Z,99758.66
2019-04-03T01:04:20.199Z,99760.23
2019-04-03T01:06:49.193Z,99761.63
2019-04-03T01:09:18.173Z,99756.68
2019-04-03T01:11:46.945Z,99747.38
2019-04-03T01:14:15.859Z,99754.63
2019-04-03T01:16:44.780Z,99756.40
2019-04-03T01:19:13.758Z,99763.76
2019-04-03T01:21:42.571Z,99761.86
2019-04-03T01:24:11.505Z,99759.08
2019-04-03T01:26:41.197Z,99755.38
2019-04-03T01:29:10.633Z,99767.45
2019-04-03T01:31:38.267Z,99763.41
2019-04-03T01:34:07.241Z,99757.89
2019-04-03T01:36:36.212Z,99760.13
2019-04-03T01:39:06.467Z,99757.11
2019-04-03T01:41:35.388Z,99753.83
2019-04-03T01:44:04.300Z,99757.94
2019-04-03T01:46:33.301Z,99758.80
2019-04-03T01:49:02.373Z,99758.80
2019-04-03T01:51:31.006Z,99759.86
2019-04-03T01:54:02.319Z,99759.08
2019-04-03T01:56:28.814Z,99749.26
2019-04-03T01:58:57.774Z,99754.61
2019-04-03T02:01:26.604Z,99747.63
2019-04-03T02:03:55.537Z,99743.73
2019-04-03T02:06:24.397Z,99747.99
2019-04-03T02:08:53.456Z,99745.21
2019-04-03T02:11:22.218Z,99745.23
2019-04-03T02:13:51.683Z,99752.83
2019-04-03T02:16:20.061Z,99758.52
2019-04-03T02:18:48.998Z,99756.50
2019-04-03T02:21:17.933Z,99759.14
2019-04-03T02:23:46.837Z,99763.23
2019-04-03T02:26:15.720Z,99764.18
2019-04-03T02:28:44.638Z,99760.28
2019-04-03T02:31:18.200Z,99755.56
2019-04-03T02:33:42.656Z,99749.48
2019-04-03T02:36:12.566Z,99751.05
2019-04-03T02:38:40.224Z,99754.55
2019-04-03T02:41:09.134Z,99749.98
2019-04-03T02:43:38.041Z,99752.45
2019-04-03T02:46:07.007Z,99755.03
2019-04-03T02:48:38.295Z,99756.70
2019-04-03T02:51:05.141Z,99755.91
2019-04-03T02:53:33.739Z,99750.91
2019-04-03T02:56:02.679Z,99753.09
2019-04-03T02:58:31.623Z,99751.27
2019-04-03T03:01:00.520Z,99750.38
2019-04-03T03:03:29.430Z,99750.84
2019-04-03T03:06:00.704Z,99754.46
2019-04-03T03:08:27.233Z,99752.88
2019-04-03T03:10:56.772Z,99752.80
2019-04-03T03:13:25.809Z,99749.76
2019-04-03T03:15:54.609Z,99751.64
2019-04-03T03:18:24.648Z,99755.97
2019-04-03T03:20:52.391Z,99751.97
2019-04-03T03:23:23.359Z,99758.64
2019-04-03T03:25:50.213Z,99760.02
2019-04-03T03:28:19.425Z,99757.25
2019-04-03T03:30:57.836Z,99758.35
2019-04-03T03:33:34.748Z,99759.66
2019-04-03T03:35:48.935Z,99755.09
2019-04-03T03:38:16.211Z,99758.52
2019-04-03T03:40:48.342Z,99758.59
2019-04-03T03:43:14.422Z,99766.54
2019-04-03T03:45:43.251Z,99768.03
2019-04-03T03:48:12.197Z,99761.71
2019-04-03T03:50:41.330Z,99761.00
2019-04-03T03:53:11.982Z,99760.30
2019-04-03T03:55:38.854Z,99762.20
2019-04-03T03:58:11.020Z,99762.16
2019-04-03T04:00:36.702Z,99763.70
2019-04-03T04:03:09.095Z,99766.25
2019-04-03T04:05:34.851Z,99766.66
2019-04-03T04:08:04.392Z,99767.03
2019-04-03T04:10:35.887Z,99765.75
2019-04-03T04:13:02.241Z,99766.39
2019-04-03T04:15:31.806Z,99768.41
2019-04-03T04:18:00.397Z,99767.98
2019-04-03T04:20:29.015Z,99767.55
2019-04-03T04:22:57.909Z,99772.45
2019-04-03T04:25:28.297Z,99764.02
2019-04-03T04:27:55.775Z,99765.23
2019-04-03T04:30:24.666Z,99765.73
2019-04-03T04:32:53.652Z,99762.82
2019-04-03T04:35:22.465Z,99768.39
2019-04-03T04:37:51.368Z,99765.27
2019-04-03T04:40:20.260Z,99770.20
2019-04-03T04:42:49.169Z,99768.25
2019-04-03T04:45:18.058Z,99761.72
2019-04-03T04:47:46.955Z,99764.63
2019-04-03T04:50:24.165Z,99765.66
2019-04-03T04:52:50.695Z,99764.23
2019-04-03T04:55:19.803Z,99762.71
2019-04-03T04:57:48.758Z,99757.93
2019-04-03T05:00:17.656Z,99760.70
2019-04-03T05:02:46.587Z,99761.75
2019-04-03T05:05:15.510Z,99760.20
2019-04-03T05:07:44.404Z,99753.41
2019-04-03T05:10:13.308Z,99759.76
2019-04-03T05:12:44.729Z,99751.17
2019-04-03T05:15:11.116Z,99753.30
2019-04-03T05:17:40.031Z,99753.62
2019-04-03T05:20:08.939Z,99761.54
2019-04-03T05:22:37.839Z,99757.84
2019-04-03T05:25:07.221Z,99761.89
2019-04-03T05:27:35.985Z,99764.41
2019-04-03T05:30:06.028Z,99765.94
2019-04-03T05:32:34.153Z,99767.28
2019-04-03T05:35:03.055Z,99764.30
2019-04-03T05:37:31.985Z,99761.61
2019-04-03T05:40:00.888Z,99768.06
2019-04-03T05:42:29.784Z,99761.46
2019-04-03T05:44:58.680Z,99766.64
2019-04-03T05:47:27.581Z,99763.73
2019-04-03T05:49:56.564Z,99764.16
2019-04-03T05:52:25.402Z,99766.56
2019-04-03T05:54:54.399Z,99763.88
2019-04-03T05:57:23.285Z,99753.47
2019-04-03T06:00:00.064Z,99755.73
2019-04-03T06:02:22.188Z,99759.92
2019-04-03T06:04:50.129Z,99764.95
2019-04-03T06:07:19.011Z,99768.88
2019-04-03T06:09:47.863Z,99766.53
2019-04-03T06:12:18.654Z,99772.22
2019-04-03T06:14:45.662Z,99769.73
2019-04-03T06:17:14.673Z,99770.72
2019-04-03T06:19:43.602Z,99764.42
2019-04-03T06:22:12.503Z,99760.78
2019-04-03T06:24:41.408Z,99764.03
2019-04-03T06:27:10.593Z,99766.12
2019-04-03T06:29:39.288Z,99765.70
2019-04-03T06:32:08.227Z,99765.48
2019-04-03T06:34:38.870Z,99756.38
2019-04-03T06:37:06.311Z,99771.09
2019-04-03T06:39:35.213Z,99770.76
2019-04-03T06:42:04.361Z,99766.05
2019-04-03T06:44:33.101Z,99766.26
2019-04-03T06:47:02.078Z,99764.91
2019-04-03T06:49:31.096Z,99770.66
2019-04-03T06:51:59.773Z,99767.26
2019-04-03T06:54:31.032Z,99763.78
2019-04-03T06:56:57.629Z,99766.11
2019-04-03T06:59:26.518Z,99763.55
2019-04-03T07:01:55.414Z,99758.84
2019-04-03T07:04:24.332Z,99752.77
2019-04-03T07:06:55.758Z,99764.48
2019-04-03T07:09:32.316Z,99771.89
2019-04-03T07:11:51.184Z,99773.19
2019-04-03T07:14:20.113Z,99780.30
2019-04-03T07:16:49.041Z,99776.12
2019-04-03T07:19:17.953Z,99773.58
2019-04-03T07:21:46.842Z,99775.52
2019-04-03T07:24:15.777Z,99769.61
2019-04-03T07:26:44.968Z,99769.67
2019-04-03T07:29:15.818Z,99763.16
2019-04-03T07:31:42.733Z,99764.92
2019-04-03T07:34:11.405Z,99763.94
2019-04-03T07:36:41.382Z,99761.77
2019-04-03T07:39:11.001Z,99756.05
2019-04-03T07:41:41.199Z,99770.64
2019-04-03T07:44:07.465Z,99782.03
2019-04-03T07:46:36.356Z,99779.50
2019-04-03T07:49:06.811Z,99778.30
2019-04-03T07:51:34.381Z,99776.09
2019-04-03T07:54:04.744Z,99778.96
2019-04-03T07:56:32.300Z,99773.16
2019-04-03T07:59:03.305Z,99766.57
2019-04-03T08:01:29.906Z,99764.30
2019-04-03T08:03:58.805Z,99758.25
2019-04-03T08:06:27.919Z,99758.23
2019-04-03T08:09:07.214Z,99752.86
2019-04-03T08:11:25.733Z,99746.12
2019-04-03T08:13:54.561Z,99755.94
2019-04-03T08:16:23.362Z,99760.19
2019-04-03T08:18:52.498Z,99770.88
2019-04-03T08:21:21.242Z,99764.75
2019-04-03T08:23:50.086Z,99778.05
2019-04-03T08:26:19.856Z,99771.07
2019-04-03T08:28:47.935Z,99774.13
2019-04-03T08:31:16.827Z,99777.82
2019-04-03T08:33:45.734Z,99787.75
2019-04-03T08:36:24.702Z,99780.84
2019-04-03T08:38:44.947Z,99775.97
2019-04-03T08:41:12.495Z,99786.73
2019-04-03T08:43:41.452Z,99786.92
2019-04-03T08:46:11.014Z,99781.20
2019-04-03T08:48:39.485Z,99787.64
2019-04-03T08:51:08.439Z,99790.47
2019-04-03T08:53:39.332Z,99793.13
2019-04-03T08:56:06.668Z,99797.75
2019-04-03T08:58:35.282Z,99788.17
2019-04-03T09:01:05.332Z,99783.52
2019-04-03T09:03:33.287Z,99790.51
2019-04-03T09:06:02.202Z,99782.38
2019-04-03T09:08:31.114Z,99775.23
2019-04-03T09:11:00.006Z,99768.73
2019-04-03T09:13:28.910Z,99762.88
2019-04-03T09:15:59.723Z,99757.66
2019-04-03T09:18:29.758Z,99766.94
2019-04-03T09:20:55.674Z,99765.83
2019-04-03T09:23:25.096Z,99769.86
2019-04-03T09:25:53.480Z,99773.48
2019-04-03T09:28:22.799Z,99776.80
2019-04-03T09:30:53.982Z,99780.45
2019-04-03T09:33:20.164Z,99780.48
2019-04-03T09:35:49.061Z,99772.27
2019-04-03T09:38:17.992Z,99776.08
2019-04-03T09:40:48.315Z,99770.05
2019-04-03T09:43:15.772Z,99765.90
2019-04-03T09:45:44.704Z,99774.03
2019-04-03T09:48:13.602Z,99784.83
2019-04-03T09:50:45.370Z,99767.47
2019-04-03T09:53:11.556Z,99771.50
2019-04-03T09:55:40.338Z,99776.38
2019-04-03T09:58:09.415Z,99774.69
2019-04-03T10:00:41.257Z,99782.70
2019-04-03T10:03:07.365Z,99758.50
2019-04-03T10:05:36.146Z,99773.19
2019-04-03T10:08:07.709Z,99769.42
2019-04-03T10:10:34.775Z,99774.96
2019-04-03T10:13:03.422Z,99773.42
2019-04-03T10:15:32.431Z,99772.93
2019-04-03T10:18:01.170Z,99771.20
2019-04-03T10:20:30.100Z,99763.56
2019-04-03T10:22:58.996Z,99759.73
2019-04-03T10:25:27.901Z,99750.39
2019-04-03T10:27:56.866Z,99754.12
2019-04-03T10:30:26.007Z,99744.98
2019-04-03T10:32:54.760Z,99739.95
2019-04-03T10:35:23.526Z,99747.05
2019-04-03T10:37:52.458Z,99742.95
2019-04-03T10:40:23.650Z,99743.25
2019-04-03T10:42:50.529Z,99743.63
2019-04-03T10:45:19.154Z,99746.44
2019-04-03T10:47:48.062Z,99742.16
2019-04-03T10:50:17.258Z,99740.27
2019-04-03T10:52:48.197Z,99739.84
2019-04-03T10:55:14.961Z,99738.39
2019-04-03T10:57:43.911Z,99744.96
2019-04-03T11:00:12.770Z,99737.77
2019-04-03T11:02:42.027Z,99740.36
2019-04-03T11:05:10.834Z,99742.16
2019-04-03T11:07:39.536Z,99728.83
2019-04-03T11:10:08.690Z,99722.78
2019-04-03T11:12:37.994Z,99715.61
2019-04-03T11:15:06.975Z,99705.30
2019-04-03T11:17:35.793Z,99701.24
2019-04-03T11:20:08.798Z,99703.47
2019-04-03T11:22:40.431Z,99718.25
2019-04-03T11:25:04.112Z,99715.73
2019-04-03T11:27:42.535Z,99716.70
2019-04-03T11:30:02.123Z,99705.34
2019-04-03T11:32:30.780Z,99708.39
2019-04-03T11:34:59.680Z,99720.59
2019-04-03T11:37:32.133Z,99714.65
2019-04-03T11:40:03.778Z,99697.48
2019-04-03T11:42:29.301Z,99708.80
2019-04-03T11:44:55.321Z,99698.94
2019-04-03T11:47:24.187Z,99687.79
2019-04-03T11:49:53.273Z,99682.09
2019-04-03T11:52:21.985Z,99687.03
2019-04-03T11:54:52.812Z,99673.95
2019-04-03T11:57:19.829Z,99674.88
2019-04-03T11:59:49.061Z,99658.97
2019-04-03T12:02:17.617Z,99663.42
2019-04-03T12:04:46.531Z,99663.38
2019-04-03T12:07:15.435Z,99651.34
2019-04-03T12:09:44.346Z,99653.09
2019-04-03T12:12:13.259Z,99661.27
2019-04-03T12:14:42.347Z,99662.98
2019-04-03T12:17:11.181Z,99680.87
2019-04-03T12:19:40.136Z,99682.75
2019-04-03T12:22:09.118Z,99690.29
2019-04-03T12:24:38.338Z,99678.34
2019-04-03T12:27:07.004Z,99671.41
2019-04-03T12:29:35.889Z,99673.08
2019-04-03T12:32:07.933Z,99662.16
2019-04-03T12:34:36.625Z,99654.98
2019-04-03T12:37:02.662Z,99670.60
2019-04-03T12:39:31.994Z,99669.30
2019-04-03T12:42:00.532Z,99676.20
2019-04-03T12:44:29.932Z,99686.48
2019-04-03T12:46:58.335Z,99690.17
2019-04-03T12:49:27.207Z,99689.25
2019-04-03T12:51:56.154Z,99693.80
2019-04-03T12:54:25.434Z,99700.02
2019-04-03T12:56:54.054Z,99696.52
2019-04-03T12:59:22.934Z,99681.11
2019-04-03T13:01:51.821Z,99679.09
2019-04-03T13:04:21.157Z,99662.61
2019-04-03T13:06:50.022Z,99657.02
2019-04-03T13:09:18.529Z,99662.45
2019-04-03T13:11:49.920Z,99638.80
2019-04-03T13:14:24.164Z,99640.34
2019-04-03T13:16:47.128Z,99625.91
2019-04-03T13:19:15.639Z,99622.92
2019-04-03T13:21:43.146Z,99600.91
2019-04-03T13:24:12.614Z,99583.31
2019-04-03T13:26:40.911Z,99571.57
2019-04-03T13:29:09.966Z,99589.48
2019-04-03T13:31:38.858Z,99588.82
2019-04-03T13:34:09.753Z,99595.80
2019-04-03T13:36:36.689Z,99601.11
2019-04-03T13:39:07.566Z,99607.29
2019-04-03T13:41:36.404Z,99614.25
2019-04-03T13:44:05.528Z,99606.51
2019-04-03T13:46:36.402Z,99601.67
2019-04-03T13:49:03.604Z,99600.45
2019-04-03T13:51:32.241Z,99599.72
2019-04-03T13:54:01.137Z,99589.59
2019-04-03T13:56:30.489Z,99574.67
2019-04-03T13:58:58.999Z,99566.27
2019-04-03T14:01:28.441Z,99561.67
2019-04-03T14:03:57.133Z,99556.69
2019-04-03T14:06:25.647Z,99570.36
2019-04-03T14:08:54.593Z,99565.80
2019-04-03T14:11:23.514Z,99577.38
2019-04-03T14:13:52.770Z,99572.99
2019-04-03T14:16:22.804Z,99580.89
2019-04-03T14:18:51.134Z,99599.05
2019-04-03T14:21:19.123Z,99601.02
2019-04-03T14:23:48.108Z,99600.00
2019-04-03T14:26:17.178Z,99598.89
2019-04-03T14:28:45.900Z,99604.76
2019-04-03T14:31:16.869Z,99612.22
2019-04-03T14:33:46.264Z,99612.31
2019-04-03T14:36:12.574Z,99607.30
2019-04-03T14:38:41.503Z,99608.20
2019-04-03T14:41:10.740Z,99600.30
2019-04-03T14:43:39.459Z,99587.75
2019-04-03T14:46:08.529Z,99583.31
2019-04-03T14:48:37.102Z,99572.81
2019-04-03T14:51:07.265Z,99572.11
2019-04-03T14:53:34.910Z,99565.95
2019-04-03T14:56:03.842Z,99563.19
2019-04-03T14:58:32.728Z,99572.81
2019-04-03T15:01:01.644Z,99583.34
2019-04-03T15:03:30.561Z,99585.38
2019-04-03T15:05:59.477Z,99585.52
2019-04-03T15:08:28.420Z,99578.76
2019-04-03T15:10:57.297Z,99579.09
2019-04-03T15:13:26.625Z,99575.30
2019-04-03T15:15:55.127Z,99571.34
2019-04-03T15:18:24.013Z,99566.09
2019-04-03T15:20:53.275Z,99558.45
2019-04-03T15:23:21.979Z,99553.67
2019-04-03T15:25:52.852Z,99543.30
2019-04-03T15:28:19.764Z,99537.02
2019-04-03T15:30:48.515Z,99533.29
2019-04-03T15:33:17.465Z,99531.42
2019-04-03T15:35:46.400Z,99535.31
2019-04-03T15:38:18.074Z,99535.90
2019-04-03T15:40:44.265Z,99540.75
2019-04-03T15:43:15.952Z,99550.94
2019-04-03T15:45:42.124Z,99549.09
2019-04-03T15:48:11.271Z,99548.45
2019-04-03T15:50:40.027Z,99549.52
2019-04-03T15:53:08.958Z,99556.30
2019-04-03T15:55:39.014Z,99552.06
2019-04-03T15:58:07.119Z,99550.53
2019-04-03T16:00:36.565Z,99560.88
2019-04-03T16:03:04.968Z,99551.48
2019-04-03T16:05:36.331Z,99561.51
2019-04-03T16:08:02.960Z,99564.91
2019-04-03T16:10:31.719Z,99565.15
2019-04-03T16:13:01.144Z,99566.16
2019-04-03T16:15:29.840Z,99556.74
2019-04-03T16:17:58.363Z,99568.08
2019-04-03T16:20:27.638Z,99584.05
2019-04-03T16:22:56.210Z,99583.04
2019-04-03T16:25:25.511Z,99570.36
2019-04-03T16:27:54.399Z,99573.59
2019-04-03T16:30:22.815Z,99574.98
2019-04-03T16:32:51.986Z,99577.99
2019-04-03T16:35:20.624Z,99567.69
2019-04-03T16:37:50.608Z,99565.48
2019-04-03T16:40:18.416Z,99555.52
2019-04-03T16:42:48.290Z,99544.37
2019-04-03T16:45:16.228Z,99547.59
2019-04-03T16:47:45.790Z,99543.63
2019-04-03T16:50:14.054Z,99550.30
2019-04-03T16:52:43.577Z,99553.01
2019-04-03T16:55:11.943Z,99569.61
2019-04-03T16:57:40.753Z,99567.97
2019-04-03T17:00:10.311Z,99565.25
2019-04-03T17:02:38.713Z,99557.97
2019-04-03T17:05:10.424Z,99555.59
2019-04-03T17:07:38.090Z,99555.79
2019-04-03T17:10:05.785Z,99554.27
2019-04-03T17:12:34.710Z,99551.39
2019-04-03T17:15:03.685Z,99552.23
2019-04-03T17:17:32.791Z,99548.00
2019-04-03T17:20:01.503Z,99545.80
2019-04-03T17:22:30.992Z,99537.50
2019-04-03T17:24:59.414Z,99523.30
2019-04-03T17:27:30.338Z,99514.33
2019-04-03T17:29:57.292Z,99506.02
2019-04-03T17:32:28.958Z,99491.33
2019-04-03T17:34:55.025Z,99495.22
2019-04-03T17:37:25.446Z,99493.36
2019-04-03T17:39:52.870Z,99492.84
2019-04-03T17:42:21.796Z,99510.80
2019-04-03T17:44:50.682Z,99519.42
2019-04-03T17:47:20.038Z,99526.19
2019-04-03T17:49:48.472Z,99526.69
2019-04-03T17:52:17.375Z,99528.89
2019-04-03T17:54:46.266Z,99532.64
2019-04-03T17:57:17.399Z,99523.66
2019-04-03T17:59:44.123Z,99531.78
2019-04-03T18:02:13.027Z,99530.42
2019-04-03T18:04:41.947Z,99524.00
2019-04-03T18:07:12.175Z,99517.89
2019-04-03T18:09:41.952Z,99511.48
2019-04-03T18:12:08.864Z,99515.37
2019-04-03T18:14:37.944Z,99520.98
2019-04-03T18:17:06.908Z,99517.94
2019-04-03T18:19:37.606Z,99515.05
2019-04-03T18:22:04.805Z,99511.84
2019-04-03T18:24:33.692Z,99519.95
2019-04-03T18:27:03.222Z,99512.16
2019-04-03T18:29:31.523Z,99504.05
2019-04-03T18:32:00.418Z,99501.50
2019-04-03T18:34:29.330Z,99515.34
2019-04-03T18:36:58.282Z,99519.58
2019-04-03T18:39:27.241Z,99520.59
2019-04-03T18:41:56.183Z,99531.22
2019-04-03T18:44:26.958Z,99536.20
2019-04-03T18:46:53.980Z,99540.37
2019-04-03T18:49:22.856Z,99550.22
2019-04-03T18:51:51.737Z,99560.48
2019-04-03T18:54:20.652Z,99561.32
2019-04-03T18:56:49.578Z,99562.33
2019-04-03T18:59:18.574Z,99555.09
2019-04-03T19:01:47.391Z,99550.84
2019-04-03T19:04:16.280Z,99544.56
2019-04-03T19:06:45.310Z,99545.44
2019-04-03T19:09:14.088Z,99555.05
2019-04-03T19:11:43.014Z,99565.70
2019-04-03T19:14:11.969Z,99558.09
2019-04-03T19:16:45.231Z,99554.89
2019-04-03T19:19:09.856Z,99550.31
2019-04-03T19:21:38.756Z,99549.05
2019-04-03T19:24:07.718Z,99543.22
2019-04-03T19:26:36.658Z,99539.02
2019-04-03T19:29:05.683Z,99557.75
2019-04-03T19:31:34.488Z,99557.42
2019-04-03T19:34:03.468Z,99560.28
2019-04-03T19:36:32.356Z,99557.58
2019-04-03T19:39:01.258Z,99570.44
2019-04-03T19:41:30.166Z,99583.77
2019-04-03T19:44:00.694Z,99568.88
2019-04-03T19:46:28.080Z,99567.70
2019-04-03T19:48:57.406Z,99569.57
2019-04-03T19:51:25.854Z,99574.27
2019-04-03T19:53:59.589Z,99583.89
2019-04-03T19:56:25.731Z,99582.72
2019-04-03T19:58:52.603Z,99580.81
2019-04-03T20:01:23.850Z,99574.17
2019-04-03T20:03:50.412Z,99584.30
2019-04-03T20:06:22.384Z,99585.16
2019-04-03T20:08:48.221Z,99572.28
2019-04-03T20:11:17.126Z,99572.28
2019-04-03T20:13:46.069Z,99570.77
2019-04-03T20:16:14.969Z,99577.54
2019-04-03T20:18:43.883Z,99579.58
2019-04-03T20:21:15.118Z,99571.79
2019-04-03T20:23:42.466Z,99573.62
2019-04-03T20:26:10.650Z,99567.43
2019-04-03T20:28:39.529Z,99567.37
2019-04-03T20:31:08.480Z,99556.00
2019-04-03T20:33:37.378Z,99544.16
2019-04-03T20:36:06.346Z,99534.48
2019-04-03T20:38:35.239Z,99527.81
2019-04-03T20:41:04.142Z,99525.53
2019-04-03T20:43:33.028Z,99523.47
2019-04-03T20:46:01.929Z,99552.67
2019-04-03T20:48:30.824Z,99554.65
2019-04-03T20:50:59.759Z,99546.70
2019-04-03T20:53:28.620Z,99538.75
2019-04-03T20:55:58.091Z,99536.36
2019-04-03T20:58:26.414Z,99554.23
2019-04-03T21:01:05.917Z,99551.98
2019-04-03T21:03:24.197Z,99554.85
2019-04-03T21:05:53.259Z,99563.91
2019-04-03T21:08:22.152Z,99566.41
2019-04-03T21:10:51.034Z,99576.52
2019-04-03T21:13:19.942Z,99575.83
2019-04-03T21:15:52.285Z,99583.22
2019-04-03T21:18:21.208Z,99590.32
2019-04-03T21:20:50.939Z,99581.02
2019-04-03T21:23:21.150Z,99582.95
2019-04-03T21:25:51.720Z,99578.61
2019-04-03T21:28:20.537Z,99566.92
2019-04-03T21:30:49.441Z,99572.87
2019-04-03T21:33:18.353Z,99560.71
2019-04-03T21:35:47.239Z,99552.83
2019-04-03T21:38:16.110Z,99545.85
2019-04-03T21:40:46.822Z,99538.75
2019-04-03T21:43:13.915Z,99524.59
2019-04-03T21:45:42.825Z,99517.80
2019-04-03T21:48:13.556Z,99523.67
2019-04-03T21:50:40.599Z,99531.77
2019-04-03T21:53:09.485Z,99539.97
2019-04-03T21:55:38.403Z,99539.77
2019-04-03T21:58:08.925Z,99540.42
2019-04-03T22:01:16.988Z,99537.88
2019-04-03T22:03:45.962Z,99538.18
2019-04-03T22:06:14.838Z,99530.59
2019-04-03T22:08:43.783Z,99538.91
2019-04-03T22:11:12.666Z,99545.32
2019-04-03T22:13:41.568Z,99545.97
2019-04-03T22:16:10.526Z,99544.08
2019-04-03T22:18:39.406Z,99537.83
2019-04-03T22:21:08.300Z,99538.68
2019-04-03T22:23:37.203Z,99538.68
2019-04-03T22:26:06.106Z,99537.23
2019-04-03T22:28:35.017Z,99529.14
2019-04-03T22:31:03.963Z,99524.42
2019-04-03T22:33:32.955Z,99519.04
2019-04-03T22:36:03.411Z,99539.77
2019-04-03T22:38:30.699Z,99556.21
2019-04-03T22:40:59.583Z,99563.29
2019-04-03T22:43:28.551Z,99570.69
2019-04-03T22:45:57.410Z,99566.20
2019-04-03T22:48:27.431Z,99557.95
2019-04-03T22:50:55.169Z,99545.56
2019-04-03T22:53:24.098Z,99518.50
2019-04-03T22:55:53.013Z,99508.63
2019-04-03T22:58:21.909Z,99510.94
2019-04-03T23:00:50.806Z,99538.42
2019-04-03T23:03:19.725Z,99565.66
2019-04-03T23:05:48.664Z,99567.89
2019-04-03T23:08:17.500Z,99573.94
2019-04-03T23:10:46.435Z,99582.87
2019-04-03T23:13:15.343Z,99578.35
2019-04-03T23:15:44.252Z,99584.89
2019-04-03T23:18:13.999Z,99597.09
2019-04-03T23:20:42.388Z,99581.67
2019-04-03T23:23:11.272Z,99576.06
2019-04-03T23:25:40.191Z,99572.75
2019-04-03T23:28:09.048Z,99576.70
2019-04-03T23:30:39.118Z,99569.63
2019-04-03T23:33:06.912Z,99556.57
2019-04-03T23:35:35.881Z,99539.52
2019-04-03T23:38:04.886Z,99547.11
2019-04-03T23:40:34.625Z,99545.58
2019-04-03T23:43:02.740Z,99549.88
2019-04-03T23:45:32.003Z,99536.84
2019-04-03T23:48:01.002Z,99519.16
2019-04-03T23:50:29.899Z,99514.50
2019-04-03T23:53:00.723Z,99518.55
2019-04-03T23:55:27.718Z,99505.64
2019-04-03T23:57:56.653Z,99507.55
